OMNRY LGSK-LGSK
Flight info
| Callsign | OMNRY |
|---|---|
| Flight time | 0h 19m |
| Altitude | 3000 |
| Route | SKP |
| Aircraft | DV20/L-V/N |
Departure
| Time | 2026-04-21 14:02 |
|---|---|
| Airport | Skiathos Island National Airport (LGSK) |
Arrival
| Time | 2026-04-21 14:21 |
|---|---|
| Airport | Skiathos Island National Airport (LGSK) |
| Time | Latitude | Longitude | Altitude | Speed | Heading |
|---|---|---|---|---|---|
| 2026-04-21 13:49 | 39.17704 | 23.50212 | 31 ft | 0 kts | 321° |
| 2026-04-21 13:59 | 39.17710 | 23.50208 | 32 ft | 4 kts | 359° |
| 2026-04-21 13:59 | 39.17745 | 23.50247 | 34 ft | 10 kts | 42° |
| 2026-04-21 14:00 | 39.17837 | 23.50292 | 36 ft | 17 kts | 20° |
| 2026-04-21 14:00 | 39.17913 | 23.50346 | 36 ft | 11 kts | 73° |
| 2026-04-21 14:00 | 39.17919 | 23.50434 | 36 ft | 9 kts | 137° |
| 2026-04-21 14:00 | 39.17808 | 23.50401 | 34 ft | 38 kts | 199° |
| 2026-04-21 14:01 | 39.17439 | 23.50235 | 95 ft | 68 kts | 202° |
| 2026-04-21 14:01 | 39.16972 | 23.50022 | 233 ft | 69 kts | 203° |
| 2026-04-21 14:01 | 39.16553 | 23.49811 | 443 ft | 63 kts | 199° |
| 2026-04-21 14:01 | 39.16125 | 23.49624 | 639 ft | 66 kts | 199° |
| 2026-04-21 14:02 | 39.15702 | 23.49381 | 734 ft | 69 kts | 208° |
| 2026-04-21 14:02 | 39.15229 | 23.49113 | 838 ft | 77 kts | 207° |
| 2026-04-21 14:02 | 39.14835 | 23.48684 | 1081 ft | 74 kts | 204° |
| 2026-04-21 14:03 | 39.14110 | 23.49429 | 1453 ft | 92 kts | 110° |
| 2026-04-21 14:03 | 39.13981 | 23.50283 | 1476 ft | 98 kts | 105° |
| 2026-04-21 14:03 | 39.13857 | 23.51147 | 1508 ft | 100 kts | 105° |
| 2026-04-21 14:03 | 39.13733 | 23.52019 | 1545 ft | 100 kts | 105° |
| 2026-04-21 14:04 | 39.13644 | 23.52906 | 1569 ft | 100 kts | 98° |
| 2026-04-21 14:04 | 39.13615 | 23.53791 | 1594 ft | 100 kts | 96° |
| 2026-04-21 14:04 | 39.13600 | 23.54683 | 1640 ft | 98 kts | 96° |
| 2026-04-21 14:04 | 39.13632 | 23.55578 | 1669 ft | 103 kts | 88° |
| 2026-04-21 14:05 | 39.13714 | 23.56484 | 1737 ft | 99 kts | 87° |
| 2026-04-21 14:05 | 39.13797 | 23.57372 | 1801 ft | 102 kts | 88° |
| 2026-04-21 14:05 | 39.13894 | 23.58300 | 1866 ft | 104 kts | 83° |
| 2026-04-21 14:05 | 39.14088 | 23.59202 | 1939 ft | 107 kts | 74° |
| 2026-04-21 14:06 | 39.14148 | 23.60139 | 1958 ft | 107 kts | 103° |
| 2026-04-21 14:06 | 39.13908 | 23.61071 | 1927 ft | 109 kts | 121° |
| 2026-04-21 14:06 | 39.13570 | 23.61922 | 1950 ft | 104 kts | 123° |
| 2026-04-21 14:06 | 39.13258 | 23.62749 | 2009 ft | 102 kts | 124° |
| 2026-04-21 14:07 | 39.12869 | 23.63531 | 1993 ft | 104 kts | 131° |
| 2026-04-21 14:07 | 39.12445 | 23.64275 | 1986 ft | 104 kts | 135° |
| 2026-04-21 14:07 | 39.11963 | 23.64950 | 1990 ft | 101 kts | 143° |
| 2026-04-21 14:07 | 39.11395 | 23.65467 | 1980 ft | 99 kts | 156° |
| 2026-04-21 14:08 | 39.10802 | 23.65901 | 1988 ft | 98 kts | 159° |
| 2026-04-21 14:08 | 39.10193 | 23.66302 | 1902 ft | 94 kts | 161° |
| 2026-04-21 14:08 | 39.09598 | 23.66587 | 1848 ft | 89 kts | 171° |
| 2026-04-21 14:08 | 39.09077 | 23.66874 | 2009 ft | 80 kts | 154° |
| 2026-04-21 14:09 | 39.08588 | 23.67377 | 2099 ft | 99 kts | 142° |
| 2026-04-21 14:09 | 39.08146 | 23.68121 | 2163 ft | 108 kts | 124° |
| 2026-04-21 14:09 | 39.07870 | 23.69057 | 2173 ft | 116 kts | 102° |
| 2026-04-21 14:09 | 39.07893 | 23.70116 | 2141 ft | 122 kts | 83° |
| 2026-04-21 14:10 | 39.08176 | 23.71126 | 2219 ft | 119 kts | 59° |
| 2026-04-21 14:10 | 39.08711 | 23.71886 | 2412 ft | 117 kts | 35° |
| 2026-04-21 14:10 | 39.09393 | 23.72437 | 2612 ft | 116 kts | 22° |
| 2026-04-21 14:10 | 39.10175 | 23.72796 | 2546 ft | 121 kts | 5° |
| 2026-04-21 14:11 | 39.10978 | 23.72955 | 2590 ft | 117 kts | 360° |
| 2026-04-21 14:11 | 39.11790 | 23.73118 | 2631 ft | 119 kts | 4° |
| 2026-04-21 14:11 | 39.12594 | 23.73294 | 2663 ft | 118 kts | 1° |
| 2026-04-21 14:11 | 39.13403 | 23.73378 | 2608 ft | 113 kts | 342° |
| 2026-04-21 14:12 | 39.14092 | 23.72932 | 2495 ft | 109 kts | 323° |
| 2026-04-21 14:12 | 39.14751 | 23.72490 | 2473 ft | 107 kts | 318° |
| 2026-04-21 14:12 | 39.15305 | 23.71845 | 2391 ft | 106 kts | 308° |
| 2026-04-21 14:12 | 39.15818 | 23.71187 | 2383 ft | 103 kts | 307° |
| 2026-04-21 14:13 | 39.16345 | 23.70547 | 2318 ft | 105 kts | 310° |
| 2026-04-21 14:13 | 39.16873 | 23.69893 | 2221 ft | 106 kts | 305° |
| 2026-04-21 14:13 | 39.17364 | 23.69215 | 2192 ft | 104 kts | 305° |
| 2026-04-21 14:13 | 39.17857 | 23.68533 | 2112 ft | 106 kts | 306° |
| 2026-04-21 14:14 | 39.18358 | 23.67838 | 2042 ft | 106 kts | 304° |
| 2026-04-21 14:14 | 39.18819 | 23.67104 | 2003 ft | 103 kts | 301° |
| 2026-04-21 14:14 | 39.19289 | 23.66387 | 1936 ft | 108 kts | 304° |
| 2026-04-21 14:14 | 39.19771 | 23.65651 | 1912 ft | 106 kts | 304° |
| 2026-04-21 14:15 | 39.20260 | 23.64947 | 1899 ft | 105 kts | 305° |
| 2026-04-21 14:15 | 39.20734 | 23.64225 | 1857 ft | 105 kts | 302° |
| 2026-04-21 14:15 | 39.21175 | 23.63478 | 1837 ft | 104 kts | 298° |
| 2026-04-21 14:15 | 39.21545 | 23.62678 | 1789 ft | 105 kts | 290° |
| 2026-04-21 14:16 | 39.21832 | 23.61820 | 1762 ft | 103 kts | 284° |
| 2026-04-21 14:16 | 39.22020 | 23.60937 | 1720 ft | 102 kts | 276° |
| 2026-04-21 14:16 | 39.22092 | 23.60025 | 1688 ft | 101 kts | 269° |
| 2026-04-21 14:16 | 39.22104 | 23.59118 | 1638 ft | 101 kts | 267° |
| 2026-04-21 14:17 | 39.22106 | 23.58205 | 1584 ft | 102 kts | 266° |
| 2026-04-21 14:17 | 39.22110 | 23.57289 | 1530 ft | 103 kts | 264° |
| 2026-04-21 14:17 | 39.22042 | 23.56373 | 1483 ft | 103 kts | 259° |
| 2026-04-21 14:17 | 39.21894 | 23.55492 | 1458 ft | 98 kts | 252° |
| 2026-04-21 14:18 | 39.21735 | 23.54677 | 1356 ft | 89 kts | 253° |
| 2026-04-21 14:18 | 39.21582 | 23.53968 | 1266 ft | 78 kts | 249° |
| 2026-04-21 14:18 | 39.21394 | 23.53270 | 989 ft | 85 kts | 246° |
| 2026-04-21 14:18 | 39.21154 | 23.52645 | 831 ft | 72 kts | 229° |
| 2026-04-21 14:19 | 39.20944 | 23.52322 | 760 ft | 70 kts | 223° |
| 2026-04-21 14:19 | 39.20549 | 23.51912 | 599 ft | 77 kts | 212° |
| 2026-04-21 14:19 | 39.20118 | 23.51560 | 472 ft | 67 kts | 209° |
| 2026-04-21 14:19 | 39.19701 | 23.51275 | 390 ft | 68 kts | 203° |
| 2026-04-21 14:20 | 39.19173 | 23.51004 | 259 ft | 58 kts | 201° |
| 2026-04-21 14:20 | 39.18789 | 23.50836 | 174 ft | 59 kts | 200° |
| 2026-04-21 14:20 | 39.18529 | 23.50720 | 106 ft | 57 kts | 201° |
| 2026-04-21 14:20 | 39.18165 | 23.50559 | 51 ft | 53 kts | 202° |
| 2026-04-21 14:21 | 39.17859 | 23.50422 | 35 ft | 41 kts | 199° |
| 2026-04-21 14:21 | 39.17702 | 23.50334 | 35 ft | 13 kts | 251° |
| 2026-04-21 14:21 | 39.17710 | 23.50272 | 33 ft | 4 kts | 301° |
| 2026-04-21 14:21 | 39.17720 | 23.50251 | 33 ft | 3 kts | 304° |
| 2026-04-21 14:22 | 39.17700 | 23.50243 | 32 ft | 7 kts | 160° |
| 2026-04-21 14:22 | 39.17647 | 23.50224 | 30 ft | 3 kts | 202° |
| 2026-04-21 14:22 | 39.17647 | 23.50189 | 29 ft | 0 kts | 288° |